Time;durP1;ratioP1;P1;durP2;ratioP2;P2;SDS_P1;SDS_P2;PMS_P1;PMS_P2;Temp;Humidity;BMP_temperature;BMP_pressure;BME280_temperature;BME280_humidity;BME280_pressure;Samples;Min_cycle;Max_cycle;Signal;HPM_P1;HPM_P2
2023/08/31 00:00:35;;;;;;;3.70;2.10;;;;;;;14.10;100.00;154982.03;5043989;28;20436;-88
2023/08/31 00:03:02;;;;;;;2.40;2.10;;;;;;;14.11;100.00;154984.59;5045726;28;20428;-90
2023/08/31 00:05:30;;;;;;;3.00;2.13;;;;;;;14.12;100.00;154987.19;5065307;28;20593;-88
2023/08/31 00:07:57;;;;;;;3.97;2.23;;;;;;;14.09;100.00;154979.41;5034367;28;20441;-90
2023/08/31 00:10:23;;;;;;;2.80;2.27;;;;;;;14.06;100.00;154970.34;5034222;28;20471;-88
2023/08/31 00:12:51;;;;;;;2.60;2.23;;;;;;;14.07;100.00;154974.22;5034322;28;20534;-88
2023/08/31 00:15:18;;;;;;;3.00;2.30;;;;;;;14.06;100.00;154971.59;5052046;28;20450;-88
2023/08/31 00:17:44;;;;;;;3.67;2.53;;;;;;;14.04;100.00;154966.41;5046778;28;20434;-89
2023/08/31 00:20:12;;;;;;;2.97;2.37;;;;;;;14.04;100.00;154967.72;5054486;28;20500;-89
2023/08/31 00:22:39;;;;;;;3.17;2.07;;;;;;;14.01;100.00;154958.63;5066903;28;20454;-89
2023/08/31 00:25:08;;;;;;;2.70;2.47;;;;;;;14.00;100.00;154956.06;5057343;28;20935;-89
2023/08/31 00:27:36;;;;;;;4.97;2.33;;;;;;;14.02;100.00;154961.25;5034220;28;20538;-89
2023/08/31 00:30:07;;;;;;;2.60;2.40;;;;;;;14.04;100.00;154966.41;5038668;28;20807;-89
2023/08/31 00:32:34;;;;;;;2.90;2.23;;;;;;;14.02;100.00;154961.25;5045603;28;20439;-89
2023/08/31 00:35:02;;;;;;;3.10;2.30;;;;;;;14.01;100.00;154958.63;5033758;28;20457;-89
2023/08/31 00:37:30;;;;;;;2.80;2.43;;;;;;;13.99;100.00;154953.44;5034070;28;20439;-89
2023/08/31 00:39:57;;;;;;;2.93;2.43;;;;;;;13.95;100.00;154943.09;5016942;28;20434;-88
2023/08/31 00:42:24;;;;;;;3.90;3.07;;;;;;;13.96;100.00;154946.94;5016848;28;20462;-89
2023/08/31 00:44:51;;;;;;;4.60;2.60;;;;;;;13.93;100.00;154937.84;5033853;28;20478;-89
2023/08/31 00:47:20;;;;;;;3.67;2.73;;;;;;;13.88;100.00;154926.19;5034246;28;20443;-89
2023/08/31 00:49:47;;;;;;;3.30;2.70;;;;;;;13.86;100.00;154921.00;5033670;28;20815;-89
2023/08/31 00:52:14;;;;;;;2.97;2.70;;;;;;;13.84;100.00;154915.81;5023869;28;20481;-89
2023/08/31 00:54:42;;;;;;;4.60;3.27;;;;;;;13.82;100.00;154909.34;4991175;28;20462;-88
2023/08/31 00:57:09;;;;;;;3.83;2.60;;;;;;;13.80;100.00;154904.09;5007307;28;20865;-89
2023/08/31 00:59:36;;;;;;;3.97;2.70;;;;;;;13.77;100.00;154896.31;5016580;28;20550;-88
2023/08/31 01:02:06;;;;;;;3.50;2.70;;;;;;;13.67;100.00;154870.34;5010222;28;20428;-88
2023/08/31 01:04:39;;;;;;;4.70;3.33;;;;;;;13.65;100.00;154865.19;4988987;28;20458;-88
2023/08/31 01:07:14;;;;;;;4.20;3.60;;;;;;;13.55;100.00;154840.53;5010346;28;20460;-88
2023/08/31 01:09:45;;;;;;;3.70;3.03;;;;;;;13.49;100.00;154823.66;5011191;28;20463;-88
2023/08/31 01:12:14;;;;;;;3.80;3.03;;;;;;;13.41;100.00;154805.50;5009610;28;20465;-88
2023/08/31 01:14:43;;;;;;;3.63;3.13;;;;;;;13.41;100.00;154804.19;5010227;28;20455;-87
2023/08/31 01:17:13;;;;;;;3.13;2.83;;;;;;;13.38;100.00;154797.69;5016611;28;20525;-88
2023/08/31 01:19:48;;;;;;;6.30;3.10;;;;;;;13.32;100.00;154782.13;5013674;28;20464;-88
2023/08/31 01:22:19;;;;;;;3.20;2.77;;;;;;;13.28;100.00;154771.75;5014994;28;20494;-88
2023/08/31 01:24:48;;;;;;;4.03;3.30;;;;;;;13.26;100.00;154766.53;5024876;28;20467;-88
2023/08/31 01:27:15;;;;;;;3.43;2.87;;;;;;;13.18;100.00;154744.50;4995655;28;20441;-88
2023/08/31 01:29:42;;;;;;;3.53;3.20;;;;;;;13.15;100.00;154738.03;5015998;28;20444;-88
2023/08/31 01:32:09;;;;;;;3.00;2.70;;;;;;;13.17;100.00;154743.22;5016143;28;20992;-89
2023/08/31 01:34:39;;;;;;;4.40;4.00;;;;;;;13.12;100.00;154730.22;5009623;28;21016;-88
2023/08/31 01:37:12;;;;;;;3.20;2.63;;;;;;;13.07;100.00;154717.25;5009469;28;20449;-89
2023/08/31 01:39:43;;;;;;;3.43;3.13;;;;;;;13.04;100.00;154709.44;5010396;28;20453;-89
2023/08/31 01:42:14;;;;;;;3.47;3.13;;;;;;;13.06;100.00;154714.59;4994164;28;20502;-88
2023/08/31 01:44:41;;;;;;;4.97;3.30;;;;;;;13.04;100.00;154708.13;5016073;28;20473;-88
2023/08/31 01:47:08;;;;;;;3.67;2.93;;;;;;;13.01;100.00;154700.31;5009115;28;20440;-89
2023/08/31 01:49:38;;;;;;;4.90;3.77;;;;;;;13.01;100.00;154700.31;5011403;28;20441;-89
2023/08/31 01:52:05;;;;;;;4.30;2.90;;;;;;;12.97;100.00;154691.28;5008865;28;20595;-88
2023/08/31 01:54:32;;;;;;;4.00;3.23;;;;;;;12.99;100.00;154696.47;5031107;28;20456;-88
2023/08/31 01:56:59;;;;;;;3.30;3.00;;;;;;;12.95;100.00;154686.06;5005959;28;20449;-89
2023/08/31 01:59:28;;;;;;;3.70;3.33;;;;;;;12.96;100.00;154687.34;5009210;28;20553;-88
2023/08/31 02:01:55;;;;;;;4.10;3.57;;;;;;;12.99;100.00;154696.47;4990614;28;20484;-88
2023/08/31 02:04:22;;;;;;;3.50;2.90;;;;;;;13.01;100.00;154700.31;4993113;28;21194;-89
2023/08/31 02:06:49;;;;;;;3.87;2.80;;;;;;;13.01;100.00;154701.63;5005863;28;20839;-87
2023/08/31 02:09:15;;;;;;;3.67;2.80;;;;;;;13.03;100.00;154706.81;4997942;28;20845;-88
2023/08/31 02:11:42;;;;;;;3.87;3.00;;;;;;;13.05;100.00;154712.00;5009806;28;20968;-88
2023/08/31 02:14:08;;;;;;;3.60;3.13;;;;;;;13.04;100.00;154708.13;5000181;28;20462;-86
2023/08/31 02:16:36;;;;;;;4.00;3.17;;;;;;;13.06;100.00;154713.28;4996555;28;20445;-87
2023/08/31 02:19:03;;;;;;;3.90;2.67;;;;;;;13.08;100.00;154718.56;4990786;28;20457;-88
2023/08/31 02:21:29;;;;;;;4.40;3.30;;;;;;;13.08;100.00;154719.81;4992418;28;20869;-87
2023/08/31 02:23:56;;;;;;;2.93;2.50;;;;;;;13.09;100.00;154722.44;4995170;28;20429;-88
2023/08/31 02:26:23;;;;;;;4.53;2.97;;;;;;;13.08;100.00;154718.56;5006785;28;20527;-88
2023/08/31 02:28:49;;;;;;;3.53;2.77;;;;;;;13.06;100.00;154714.59;5009206;28;20441;-88
2023/08/31 02:31:18;;;;;;;4.17;2.57;;;;;;;13.02;100.00;154704.25;5010407;28;20472;-88
2023/08/31 02:33:46;;;;;;;3.97;2.83;;;;;;;13.02;100.00;154704.25;5008784;28;20526;-88
2023/08/31 02:36:13;;;;;;;2.80;2.60;;;;;;;13.01;100.00;154701.63;5009141;28;20456;-88
2023/08/31 02:38:42;;;;;;;3.00;2.60;;;;;;;13.01;100.00;154701.63;4991827;28;20433;-87
2023/08/31 02:41:09;;;;;;;3.30;2.70;;;;;;;13.05;100.00;154712.00;4992182;28;20524;-88
2023/08/31 02:43:36;;;;;;;3.63;2.80;;;;;;;13.05;100.00;154712.00;5005623;28;20481;-88
2023/08/31 02:46:04;;;;;;;3.57;3.23;;;;;;;13.04;100.00;154708.13;5017063;28;20453;-88
2023/08/31 02:48:31;;;;;;;4.27;3.03;;;;;;;13.03;100.00;154705.50;5026151;28;20513;-88
2023/08/31 02:51:00;;;;;;;3.60;3.20;;;;;;;13.01;100.00;154701.63;5023337;28;20452;-88
2023/08/31 02:53:27;;;;;;;4.30;2.93;;;;;;;13.04;100.00;154708.13;4989127;28;20481;-87
2023/08/31 02:55:54;;;;;;;3.03;2.73;;;;;;;13.03;100.00;154706.81;5021118;28;20448;-90
2023/08/31 02:58:21;;;;;;;3.93;3.47;;;;;;;13.05;100.00;154712.00;4996605;28;20441;-87
2023/08/31 03:00:48;;;;;;;3.10;2.83;;;;;;;13.05;100.00;154712.00;5013922;28;20453;-88
2023/08/31 03:03:16;;;;;;;3.67;2.80;;;;;;;13.04;100.00;154709.44;5010149;28;20977;-88
2023/08/31 03:05:44;;;;;;;2.93;2.53;;;;;;;13.04;100.00;154708.13;5023966;28;20487;-88
2023/08/31 03:08:12;;;;;;;3.57;3.03;;;;;;;13.06;100.00;154714.59;4991519;28;20437;-87
2023/08/31 03:10:39;;;;;;;3.00;2.70;;;;;;;13.01;100.00;154701.63;4995651;28;20456;-88
2023/08/31 03:13:06;;;;;;;3.33;2.73;;;;;;;13.04;100.00;154709.44;5010496;28;20516;-87
2023/08/31 03:15:34;;;;;;;3.70;2.97;;;;;;;13.04;100.00;154709.44;5025582;28;20451;-88
2023/08/31 03:18:00;;;;;;;2.87;2.50;;;;;;;13.02;100.00;154702.94;5007100;28;20447;-88
2023/08/31 03:20:27;;;;;;;4.00;3.10;;;;;;;13.00;100.00;154697.75;5006443;28;20459;-88
2023/08/31 03:22:53;;;;;;;3.70;3.00;;;;;;;12.96;100.00;154688.66;5010003;28;20512;-88
2023/08/31 03:25:21;;;;;;;4.13;3.20;;;;;;;12.95;100.00;154684.75;5010613;28;20990;-88
2023/08/31 03:27:48;;;;;;;4.03;3.03;;;;;;;12.92;100.00;154677.00;4983630;28;20517;-87
2023/08/31 03:30:15;;;;;;;5.37;3.60;;;;;;;12.91;100.00;154675.69;4978480;28;20472;-87
2023/08/31 03:32:42;;;;;;;3.33;2.93;;;;;;;12.90;100.00;154671.78;5007156;28;20554;-87
2023/08/31 03:35:09;;;;;;;4.83;3.40;;;;;;;12.89;100.00;154670.53;5008840;28;20445;-87
2023/08/31 03:37:36;;;;;;;3.50;2.87;;;;;;;12.85;100.00;154660.13;5004438;28;20453;-85
2023/08/31 03:40:04;;;;;;;3.70;2.83;;;;;;;12.80;100.00;154648.47;5016367;28;20539;-85
2023/08/31 03:42:32;;;;;;;4.83;3.70;;;;;;;12.75;100.00;154635.50;5001396;28;20954;-85
2023/08/31 03:44:59;;;;;;;4.47;3.07;;;;;;;12.70;100.00;154621.22;4995632;28;21055;-85
2023/08/31 03:47:25;;;;;;;4.67;3.17;;;;;;;12.69;100.00;154619.91;5012322;28;20437;-86
2023/08/31 03:49:53;;;;;;;3.07;2.77;;;;;;;12.67;100.00;154614.75;5011502;28;20552;-87
2023/08/31 03:52:19;;;;;;;3.37;2.80;;;;;;;12.68;100.00;154616.03;4994829;28;20486;-91
2023/08/31 03:54:46;;;;;;;4.43;3.43;;;;;;;12.69;100.00;154619.91;4998301;28;20449;-90
2023/08/31 03:57:13;;;;;;;4.00;3.50;;;;;;;12.70;100.00;154622.53;5028449;28;20486;-90
2023/08/31 03:59:40;;;;;;;3.93;3.53;;;;;;;12.72;100.00;154627.72;5004035;28;20459;-91
2023/08/31 04:02:07;;;;;;;3.80;3.50;;;;;;;12.70;100.00;154621.22;5010530;28;20468;-91
2023/08/31 04:04:34;;;;;;;4.80;3.10;;;;;;;12.69;100.00;154619.91;4994710;28;20452;-91
2023/08/31 04:07:00;;;;;;;3.80;3.30;;;;;;;12.69;100.00;154619.91;5010018;28;20452;-90
2023/08/31 04:09:27;;;;;;;4.33;3.20;;;;;;;12.68;100.00;154617.31;5011809;28;20453;-91
2023/08/31 04:11:54;;;;;;;5.50;3.73;;;;;;;12.67;100.00;154613.44;5010949;28;20472;-92
2023/08/31 04:14:20;;;;;;;3.70;3.30;;;;;;;12.68;100.00;154617.31;5010571;28;20456;-91
2023/08/31 04:16:50;;;;;;;5.40;4.40;;;;;;;12.68;100.00;154616.03;4994658;28;20488;-91
2023/08/31 04:19:16;;;;;;;5.47;3.47;;;;;;;12.67;100.00;154613.44;5012197;28;20468;-91
2023/08/31 04:21:43;;;;;;;4.60;4.07;;;;;;;12.63;100.00;154603.03;4993224;28;20441;-92
2023/08/31 04:24:10;;;;;;;4.07;3.67;;;;;;;12.57;100.00;154588.81;4992051;28;20453;-88
2023/08/31 04:26:36;;;;;;;3.80;3.10;;;;;;;12.53;100.00;154577.09;5010384;28;21271;-87
2023/08/31 04:29:05;;;;;;;4.77;3.90;;;;;;;12.50;100.00;154570.63;5011919;28;20443;-87
2023/08/31 04:31:32;;;;;;;5.07;3.60;;;;;;;12.44;100.00;154555.09;5010571;28;20495;-87
2023/08/31 04:34:00;;;;;;;4.23;3.73;;;;;;;12.41;100.00;154547.31;5009754;28;20448;-87
2023/08/31 04:36:26;;;;;;;4.47;3.37;;;;;;;12.42;100.00;154548.56;5010400;28;20456;-87
2023/08/31 04:38:53;;;;;;;4.10;3.70;;;;;;;12.37;100.00;154535.59;4992756;28;20469;-86
2023/08/31 04:41:20;;;;;;;4.20;3.30;;;;;;;12.33;100.00;154525.25;4998407;28;20452;-86
2023/08/31 04:43:53;;;;;;;4.13;3.70;;;;;;;12.36;100.00;154533.03;5005335;28;20472;-88
2023/08/31 04:46:21;;;;;;;4.20;3.80;;;;;;;12.32;100.00;154522.66;5005973;28;20465;-76
2023/08/31 04:48:47;;;;;;;5.63;3.80;;;;;;;12.30;100.00;154517.47;5007930;28;20528;-76
2023/08/31 04:51:32;;;;;;;3.80;3.17;;;;;;;12.26;100.00;154508.38;5007964;28;20960;-77
2023/08/31 04:53:59;;;;;;;7.00;4.13;;;;;;;12.25;100.00;154504.50;5008591;28;20448;-74
2023/08/31 04:56:25;;;;;;;4.23;3.63;;;;;;;12.23;100.00;154499.34;5007804;28;20441;-75
2023/08/31 04:58:52;;;;;;;4.13;3.13;;;;;;;12.21;100.00;154496.72;5008041;28;20452;-75
2023/08/31 05:01:19;;;;;;;6.13;3.73;;;;;;;12.21;100.00;154495.41;5009744;28;20460;-75
2023/08/31 05:03:45;;;;;;;4.57;3.20;;;;;;;12.23;100.00;154501.91;4993980;28;20445;-74
2023/08/31 05:06:12;;;;;;;6.27;3.77;;;;;;;12.21;100.00;154496.72;5014369;28;20464;-75
2023/08/31 05:08:40;;;;;;;6.37;3.83;;;;;;;12.23;100.00;154500.66;5016907;28;20452;-75
2023/08/31 05:11:06;;;;;;;5.50;4.03;;;;;;;12.25;100.00;154504.50;5017922;28;20461;-75
2023/08/31 05:13:33;;;;;;;4.27;3.87;;;;;;;12.21;100.00;154496.72;4999104;28;20475;-76
2023/08/31 05:16:00;;;;;;;4.47;4.03;;;;;;;12.21;100.00;154496.72;4999410;28;20449;-75
2023/08/31 05:18:26;;;;;;;5.37;4.20;;;;;;;12.20;100.00;154494.13;5029813;28;20460;-75
2023/08/31 05:20:53;;;;;;;4.60;3.97;;;;;;;12.23;100.00;154501.91;5015920;28;20464;-76
2023/08/31 05:23:20;;;;;;;6.27;5.47;;;;;;;12.25;100.00;154504.50;5016338;28;20459;-75
2023/08/31 05:25:48;;;;;;;4.40;3.80;;;;;;;12.28;100.00;154513.59;5017654;28;20447;-75
2023/08/31 05:28:14;;;;;;;6.70;4.60;;;;;;;12.32;100.00;154523.94;5043058;28;20449;-76
2023/08/31 05:30:49;;;;;;;5.07;3.87;;;;;;;12.34;100.00;154529.13;4998085;28;20457;-76
2023/08/31 05:33:15;;;;;;;4.33;3.93;;;;;;;12.37;100.00;154535.59;5016363;28;21213;-75
2023/08/31 05:35:42;;;;;;;6.03;5.03;;;;;;;12.41;100.00;154546.00;5016218;28;20822;-75
2023/08/31 05:38:09;;;;;;;4.00;3.60;;;;;;;12.41;100.00;154546.00;5012917;28;20452;-75
2023/08/31 05:40:35;;;;;;;5.20;4.03;;;;;;;12.44;100.00;154553.78;5016592;28;20456;-75
2023/08/31 05:43:04;;;;;;;4.70;4.00;;;;;;;12.46;100.00;154558.97;5048122;28;20497;-76
2023/08/31 05:45:33;;;;;;;4.57;4.17;;;;;;;12.50;100.00;154570.63;5044931;28;20464;-75
2023/08/31 05:48:00;;;;;;;4.90;4.40;;;;;;;12.53;100.00;154577.09;5047270;28;20449;-75
2023/08/31 05:50:26;;;;;;;4.20;3.67;;;;;;;12.55;100.00;154582.34;5017453;28;20819;-75
2023/08/31 05:52:53;;;;;;;5.07;3.80;;;;;;;12.57;100.00;154587.50;5035896;28;21010;-75
2023/08/31 05:55:20;;;;;;;4.00;3.60;;;;;;;12.57;100.00;154588.81;5052800;28;20462;-76
2023/08/31 05:57:46;;;;;;;4.40;3.87;;;;;;;12.59;100.00;154594.00;5070208;28;20694;-75
2023/08/31 06:00:16;;;;;;;5.60;4.57;;;;;;;12.62;100.00;154601.78;5055006;28;20455;-75
2023/08/31 06:02:43;;;;;;;5.00;3.97;;;;;;;12.64;100.00;154605.66;5069981;28;20442;-75
2023/08/31 06:05:11;;;;;;;4.57;3.97;;;;;;;12.67;100.00;154614.75;5050052;28;20466;-75
2023/08/31 06:07:38;;;;;;;6.07;4.50;;;;;;;12.67;100.00;154613.44;5072014;28;20458;-76
2023/08/31 06:10:05;;;;;;;6.23;4.30;;;;;;;12.69;100.00;154618.63;5054172;28;20455;-75
2023/08/31 06:12:32;;;;;;;8.00;3.83;;;;;;;12.73;100.00;154630.28;5070665;28;20475;-74
2023/08/31 06:15:00;;;;;;;3.90;3.50;;;;;;;12.76;100.00;154638.06;5053319;28;20519;-75
2023/08/31 06:17:28;;;;;;;9.90;5.37;;;;;;;12.79;100.00;154645.84;5055605;28;20531;-75
2023/08/31 06:19:54;;;;;;;9.00;3.97;;;;;;;12.85;100.00;154660.13;5056011;28;20813;-75
2023/08/31 06:22:22;;;;;;;5.20;3.00;;;;;;;12.91;100.00;154675.69;5053057;28;20447;-74
2023/08/31 06:24:49;;;;;;;4.73;3.90;;;;;;;13.02;100.00;154702.94;5035947;28;20825;-75
2023/08/31 06:27:17;;;;;;;5.43;4.13;;;;;;;13.15;100.00;154738.03;5035709;28;20458;-74
2023/08/31 06:29:44;;;;;;;4.03;3.63;;;;;;;13.23;100.00;154757.47;5054242;28;20970;-74
2023/08/31 06:32:10;;;;;;;6.03;4.07;;;;;;;13.28;100.00;154771.75;5049745;28;20485;-75
2023/08/31 06:34:38;;;;;;;4.80;3.57;;;;;;;13.49;100.00;154824.94;5054634;28;20450;-74
2023/08/31 06:37:05;;;;;;;3.97;3.50;;;;;;;13.63;100.00;154860.00;5054082;28;20440;-75
2023/08/31 06:39:32;;;;;;;5.00;4.07;;;;;;;13.77;100.00;154896.31;5054762;28;20457;-75
2023/08/31 06:41:59;;;;;;;4.73;3.70;;;;;;;13.91;100.00;154932.66;5053271;28;20489;-75
2023/08/31 06:44:31;;;;;;;4.70;3.37;;;;;;;14.09;100.00;154978.09;5001384;28;20834;-75
2023/08/31 06:46:57;;;;;;;6.43;3.93;;;;;;;14.15;100.00;154995.00;5070149;28;20477;-75
2023/08/31 06:49:24;;;;;;;4.27;3.50;;;;;;;14.18;100.00;155002.78;5019935;28;20490;-75
2023/08/31 06:51:53;;;;;;;4.13;3.30;;;;;;;14.29;100.00;155031.38;5054051;28;20890;-75
2023/08/31 06:54:20;;;;;;;3.60;3.13;;;;;;;14.39;100.00;155056.06;5043206;28;20532;-75
2023/08/31 06:56:47;;;;;;;5.60;3.33;;;;;;;14.39;100.00;155057.38;5056017;28;20553;-75
2023/08/31 06:59:13;;;;;;;3.37;3.07;;;;;;;14.59;100.00;155109.31;5034711;28;21122;-76
2023/08/31 07:01:40;;;;;;;4.40;3.23;;;;;;;14.76;100.00;155152.19;5053520;28;20963;-75
2023/08/31 07:04:07;;;;;;;5.07;3.50;;;;;;;14.85;100.00;155174.28;5054563;28;20762;-75
2023/08/31 07:06:34;;;;;;;5.10;3.63;;;;;;;15.07;100.00;155232.72;5055752;28;20970;-75
2023/08/31 07:09:03;;;;;;;4.57;3.67;;;;;;;15.24;100.00;155275.63;5047694;28;20450;-75
2023/08/31 07:11:29;;;;;;;3.33;3.00;;;;;;;15.60;100.00;155369.22;5035957;28;20442;-75
2023/08/31 07:13:57;;;;;;;4.00;3.37;;;;;;;15.97;100.00;155462.81;5072295;28;20505;-75
2023/08/31 07:16:24;;;;;;;3.40;2.80;;;;;;;16.18;100.00;155517.44;5057697;28;20466;-75
2023/08/31 07:18:50;;;;;;;3.60;3.13;;;;;;;16.41;100.00;155577.28;5055851;28;20450;-76
2023/08/31 07:21:17;;;;;;;5.83;3.07;;;;;;;16.53;100.00;155608.53;5039730;28;20454;-75
2023/08/31 07:23:44;;;;;;;3.90;2.70;;;;;;;16.75;100.00;155664.47;5023784;28;20438;-76
2023/08/31 07:26:12;;;;;;;3.63;2.93;;;;;;;16.79;100.00;155676.19;5055688;28;20476;-76
2023/08/31 07:28:38;;;;;;;4.00;3.10;;;;;;;16.75;100.00;155665.78;5057279;28;20825;-76
2023/08/31 07:31:06;;;;;;;3.87;2.87;;;;;;;16.73;100.00;155660.53;5059881;28;20458;-75
2023/08/31 07:33:34;;;;;;;4.10;2.77;;;;;;;16.86;100.00;155694.41;5023796;28;20477;-76
2023/08/31 07:36:03;;;;;;;3.23;2.20;;;;;;;17.05;100.00;155743.81;5054005;28;20970;-76
2023/08/31 07:38:31;;;;;;;4.77;2.43;;;;;;;17.24;100.00;155790.66;5073774;28;20516;-75
2023/08/31 07:40:58;;;;;;;3.77;2.80;;;;;;;17.34;100.00;155816.72;5057514;28;20465;-76
2023/08/31 07:43:26;;;;;;;2.47;2.27;;;;;;;17.35;100.00;155819.31;5073852;28;21054;-75
2023/08/31 07:45:53;;;;;;;3.33;2.33;;;;;;;17.51;98.78;155860.97;5054660;28;20462;-76
2023/08/31 07:48:19;;;;;;;2.80;2.50;;;;;;;17.69;97.45;155907.88;5058507;28;20898;-76
2023/08/31 07:50:46;;;;;;;3.10;2.27;;;;;;;17.87;98.11;155954.72;5058939;28;20691;-76
2023/08/31 07:53:13;;;;;;;2.63;2.23;;;;;;;18.04;96.03;155999.03;5069928;28;20498;-75
2023/08/31 07:55:40;;;;;;;4.33;2.97;;;;;;;18.33;93.64;156073.25;5059339;28;20812;-76
2023/08/31 07:58:07;;;;;;;2.70;2.27;;;;;;;18.64;91.05;156152.75;5058681;28;20912;-76
2023/08/31 08:00:35;;;;;;;3.13;2.30;;;;;;;18.79;91.06;156191.84;5057851;28;20477;-76
2023/08/31 08:03:01;;;;;;;3.13;2.20;;;;;;;18.83;87.39;156202.25;5055484;28;20454;-76
2023/08/31 08:05:28;;;;;;;5.77;2.20;;;;;;;18.91;86.69;156223.09;5057191;28;20545;-76
2023/08/31 08:07:54;;;;;;;2.33;2.00;;;;;;;19.05;82.53;156259.59;5057828;28;20542;-76
2023/08/31 08:10:21;;;;;;;4.27;2.20;;;;;;;19.01;83.09;156249.16;5057812;28;20458;-76
2023/08/31 08:12:48;;;;;;;2.90;2.00;;;;;;;19.07;85.86;156263.50;5070381;28;20514;-76
2023/08/31 08:15:15;;;;;;;3.30;2.50;;;;;;;19.10;86.64;156272.63;5073384;28;20546;-75
2023/08/31 08:17:43;;;;;;;3.17;2.40;;;;;;;19.13;83.15;156280.47;5056663;28;20489;-76
2023/08/31 08:20:10;;;;;;;4.03;2.43;;;;;;;19.24;79.32;156307.84;5069997;28;20446;-76
2023/08/31 08:22:37;;;;;;;3.47;2.23;;;;;;;19.43;78.83;156357.41;5071252;28;20445;-76
2023/08/31 08:25:04;;;;;;;5.47;2.70;;;;;;;19.54;80.86;156386.06;5056810;28;20460;-76
2023/08/31 08:27:32;;;;;;;2.50;1.97;;;;;;;19.55;78.18;156387.38;5070064;28;20476;-76
2023/08/31 08:29:59;;;;;;;3.83;2.10;;;;;;;19.68;78.13;156422.56;5038258;28;20561;-76
2023/08/31 08:32:26;;;;;;;2.90;1.80;;;;;;;19.75;77.49;156439.56;5058099;28;20454;-75
2023/08/31 08:34:54;;;;;;;4.73;2.47;;;;;;;19.78;75.52;156447.31;5040474;28;20479;-75
2023/08/31 08:37:20;;;;;;;3.43;2.50;;;;;;;19.92;72.26;156483.84;5057166;28;20461;-75
2023/08/31 08:39:49;;;;;;;3.10;2.17;;;;;;;20.08;72.04;156525.59;5054325;28;20462;-75
2023/08/31 08:42:17;;;;;;;3.23;2.20;;;;;;;20.03;72.72;156512.53;5056075;28;20457;-74
2023/08/31 08:44:44;;;;;;;2.70;2.00;;;;;;;20.05;75.15;156517.75;5054506;28;20455;-74
2023/08/31 08:47:12;;;;;;;2.30;2.00;;;;;;;20.02;72.23;156509.91;5058447;28;20451;-76
2023/08/31 08:49:39;;;;;;;3.13;2.00;;;;;;;19.99;70.44;156503.41;5054657;28;20466;-76
2023/08/31 08:52:07;;;;;;;3.17;2.10;;;;;;;19.77;72.79;156446.06;5072732;28;20471;-76
2023/08/31 08:54:35;;;;;;;5.17;2.50;;;;;;;19.67;72.40;156419.94;5056621;28;20593;-74
2023/08/31 08:57:03;;;;;;;3.60;2.20;;;;;;;19.65;67.76;156413.44;5055776;28;20455;-74
2023/08/31 08:59:31;;;;;;;3.67;2.27;;;;;;;19.65;71.41;156413.44;5071990;28;20458;-74
2023/08/31 09:01:57;;;;;;;4.20;2.07;;;;;;;19.59;71.47;156397.81;5054794;28;20458;-75
2023/08/31 09:04:24;;;;;;;2.80;2.03;;;;;;;19.50;73.64;156374.34;5058312;28;20613;-75
2023/08/31 09:06:51;;;;;;;2.70;2.00;;;;;;;19.37;77.66;156341.72;5066337;28;20466;-75
2023/08/31 09:09:19;;;;;;;2.90;2.10;;;;;;;19.32;75.56;156328.69;5037538;28;20493;-75
2023/08/31 09:11:46;;;;;;;3.10;2.07;;;;;;;19.24;74.43;156309.13;5055875;28;20987;-75
2023/08/31 09:14:16;;;;;;;2.60;2.00;;;;;;;19.23;74.27;156306.53;5057241;28;20572;-76
2023/08/31 09:16:45;;;;;;;3.97;2.47;;;;;;;19.17;74.87;156289.53;5019482;28;20460;-75
2023/08/31 09:19:19;;;;;;;3.40;2.63;;;;;;;19.09;76.02;156268.75;5037261;28;20446;-76
2023/08/31 09:21:46;;;;;;;3.00;2.40;;;;;;;18.92;74.65;156225.72;5057867;28;20458;-75
2023/08/31 09:24:13;;;;;;;3.47;2.20;;;;;;;18.91;73.83;156221.78;5068510;28;20457;-75
2023/08/31 09:26:41;;;;;;;3.20;2.10;;;;;;;19.00;74.37;156245.28;5056714;28;20454;-75
2023/08/31 09:29:08;;;;;;;3.73;2.23;;;;;;;18.98;73.05;156240.06;5054056;28;20446;-75
2023/08/31 09:31:34;;;;;;;2.53;1.93;;;;;;;19.05;72.84;156259.59;5058503;28;20450;-75
2023/08/31 09:34:03;;;;;;;4.03;2.97;;;;;;;19.12;76.37;156277.84;5065722;28;20474;-75
2023/08/31 09:36:29;;;;;;;3.63;2.73;;;;;;;19.10;76.07;156272.63;5058318;28;20557;-75
2023/08/31 09:38:58;;;;;;;3.30;2.10;;;;;;;18.95;74.24;156232.25;5055427;28;20450;-75
2023/08/31 09:41:25;;;;;;;4.90;3.00;;;;;;;18.88;77.74;156214.03;5055699;28;20866;-74
2023/08/31 09:43:53;;;;;;;3.67;2.33;;;;;;;18.70;74.48;156168.38;5067121;28;20449;-75
2023/08/31 09:46:21;;;;;;;4.40;2.70;;;;;;;18.63;78.74;156150.16;5056251;28;20942;-75
2023/08/31 09:48:48;;;;;;;2.60;1.87;;;;;;;18.56;78.64;156131.94;5054906;28;20447;-75
2023/08/31 09:51:17;;;;;;;3.17;2.30;;;;;;;18.61;77.39;156144.97;5052998;28;20512;-75
2023/08/31 09:53:44;;;;;;;2.80;2.10;;;;;;;18.57;69.33;156135.84;5069953;28;20489;-75
2023/08/31 09:56:14;;;;;;;4.17;2.20;;;;;;;18.58;70.69;156137.13;5021636;28;20544;-74
2023/08/31 09:58:41;;;;;;;4.13;2.50;;;;;;;18.63;74.86;156150.16;5055897;28;20453;-75
2023/08/31 10:01:09;;;;;;;4.93;2.10;;;;;;;18.60;72.67;156143.66;5068997;28;20458;-75
2023/08/31 10:03:35;;;;;;;4.47;2.70;;;;;;;18.74;75.70;156180.09;5069730;28;20455;-75
2023/08/31 10:06:02;;;;;;;3.50;2.47;;;;;;;18.78;75.20;156190.53;5055258;28;20496;-75
2023/08/31 10:08:31;;;;;;;2.70;1.87;;;;;;;18.83;72.50;156203.56;5069437;28;20820;-75
2023/08/31 10:10:59;;;;;;;2.53;2.00;;;;;;;18.76;70.01;156184.03;5069021;28;20450;-75
2023/08/31 10:13:27;;;;;;;4.43;2.40;;;;;;;18.74;73.93;156178.84;5054275;28;20489;-74
2023/08/31 10:15:54;;;;;;;3.00;2.40;;;;;;;18.63;70.93;156150.16;5055199;28;20553;-74
2023/08/31 10:18:22;;;;;;;2.80;2.10;;;;;;;18.64;74.65;156152.75;5053865;28;20449;-75
2023/08/31 10:20:49;;;;;;;3.90;2.43;;;;;;;18.62;74.36;156148.84;5053646;28;22002;-75
2023/08/31 10:23:15;;;;;;;4.80;2.50;;;;;;;18.53;68.16;156125.38;5070677;28;20465;-74
2023/08/31 10:26:03;;;;;;;3.93;2.83;;;;;;;18.54;69.24;156126.69;5068639;28;20861;-74
2023/08/31 10:28:30;;;;;;;3.13;2.50;;;;;;;18.55;69.21;156129.31;5051494;28;20788;-75
2023/08/31 10:31:03;;;;;;;4.23;3.00;;;;;;;18.56;67.80;156131.94;5073862;28;20463;-75
2023/08/31 10:33:34;;;;;;;3.40;2.57;;;;;;;18.61;68.03;156146.22;5046253;28;20501;-74
2023/08/31 10:36:01;;;;;;;4.10;2.27;;;;;;;18.57;75.24;156135.84;5055370;28;20462;-75
2023/08/31 10:38:30;;;;;;;3.07;2.23;;;;;;;18.53;74.05;156124.13;5052443;28;20457;-74
2023/08/31 10:41:20;;;;;;;3.20;2.20;;;;;;;18.49;73.91;156113.66;5055719;28;20486;-74
2023/08/31 10:43:49;;;;;;;2.80;1.97;;;;;;;18.45;72.01;156103.22;5019546;28;20446;-75
2023/08/31 10:46:16;;;;;;;2.07;1.87;;;;;;;18.39;72.83;156087.59;5052957;28;20464;-75
2023/08/31 10:48:54;;;;;;;3.27;2.40;;;;;;;18.39;71.65;156087.59;5068047;28;20974;-75
2023/08/31 10:51:23;;;;;;;3.03;2.03;;;;;;;18.38;71.97;156084.97;5056399;28;20457;-74
2023/08/31 10:53:50;;;;;;;3.90;2.27;;;;;;;18.46;73.83;156105.81;5020010;28;20482;-74
2023/08/31 10:56:17;;;;;;;4.20;2.60;;;;;;;18.51;72.26;156118.88;5064196;28;20451;-74
2023/08/31 10:58:44;;;;;;;4.40;2.43;;;;;;;18.59;72.71;156139.72;5053023;28;20447;-74
2023/08/31 11:01:11;;;;;;;3.53;2.00;;;;;;;18.63;70.95;156150.16;5068920;28;20461;-74
2023/08/31 11:04:00;;;;;;;2.83;1.90;;;;;;;18.70;68.37;156168.38;5055280;28;20453;-75
2023/08/31 11:06:29;;;;;;;3.07;1.93;;;;;;;18.78;71.24;156189.22;5052343;28;20455;-74
2023/08/31 11:08:56;;;;;;;4.00;2.43;;;;;;;18.75;74.01;156182.72;5036042;28;20476;-74
2023/08/31 11:11:24;;;;;;;3.60;1.90;;;;;;;18.65;69.70;156155.38;5069477;28;20449;-75
2023/08/31 11:13:50;;;;;;;3.70;2.40;;;;;;;18.68;68.90;156163.19;5052198;28;21160;-75
2023/08/31 11:16:17;;;;;;;4.27;2.17;;;;;;;18.73;69.14;156176.22;5068667;28;20469;-74
2023/08/31 11:18:43;;;;;;;2.87;1.90;;;;;;;18.83;65.61;156202.25;5053937;28;20458;-74
2023/08/31 11:21:11;;;;;;;2.30;2.07;;;;;;;18.94;62.98;156230.94;5054995;28;20462;-74